Time;durP1;ratioP1;P1;durP2;ratioP2;P2;SDS_P1;SDS_P2;PMS_P1;PMS_P2;Temp;Humidity;BMP_temperature;BMP_pressure;BME280_temperature;BME280_humidity;BME280_pressure;Samples;Min_cycle;Max_cycle;Signal;HPM_P1;HPM_P2
2021/06/11 00:00:16;;;;;;;16.63;13.45;;;;;;;;;;5014971;28;20194;-69
2021/06/11 00:02:42;;;;;;;18.30;14.07;;;;;;;;;;5015748;28;20186;-69
2021/06/11 00:05:08;;;;;;;21.38;14.80;;;;;;;;;;5017334;28;20288;-69
2021/06/11 00:07:34;;;;;;;18.55;13.95;;;;;;;;;;5012983;28;20294;-69
2021/06/11 00:10:04;;;;;;;18.40;14.88;;;;;;;;;;5015837;28;20194;-69
2021/06/11 00:12:29;;;;;;;20.55;14.85;;;;;;;;;;5011548;28;20215;-69
2021/06/11 00:14:55;;;;;;;19.15;15.80;;;;;;;;;;5015615;28;20179;-69
2021/06/11 00:17:20;;;;;;;21.98;14.80;;;;;;;;;;5009409;28;20637;-69
2021/06/11 00:19:45;;;;;;;20.17;14.68;;;;;;;;;;5016921;28;20178;-69
2021/06/11 00:22:11;;;;;;;19.75;15.43;;;;;;;;;;5012056;28;20567;-69
2021/06/11 00:24:36;;;;;;;18.92;14.23;;;;;;;;;;5018038;28;20218;-69
2021/06/11 00:27:02;;;;;;;19.98;15.73;;;;;;;;;;5012408;28;20195;-69
2021/06/11 00:29:27;;;;;;;19.10;14.02;;;;;;;;;;5019295;28;20221;-69
2021/06/11 00:31:52;;;;;;;17.02;14.55;;;;;;;;;;5021024;28;20677;-69
2021/06/11 00:34:18;;;;;;;20.33;14.32;;;;;;;;;;5004373;28;20187;-68
2021/06/11 00:36:43;;;;;;;19.00;15.15;;;;;;;;;;5020791;28;20276;-69
2021/06/11 00:39:08;;;;;;;18.20;14.55;;;;;;;;;;5008576;28;20194;-68
2021/06/11 00:41:34;;;;;;;21.67;15.23;;;;;;;;;;5024672;28;20182;-69
2021/06/11 00:44:00;;;;;;;21.50;15.60;;;;;;;;;;5008808;28;20600;-69
2021/06/11 00:46:25;;;;;;;19.73;16.15;;;;;;;;;;5017477;28;20599;-69
2021/06/11 00:48:51;;;;;;;20.38;15.88;;;;;;;;;;5010003;28;20232;-69
2021/06/11 00:51:20;;;;;;;19.90;15.60;;;;;;;;;;5019633;28;20218;-68
2021/06/11 00:53:45;;;;;;;18.75;14.57;;;;;;;;;;5014376;28;20537;-69
2021/06/11 00:56:11;;;;;;;19.08;15.13;;;;;;;;;;5015068;28;20192;-69
2021/06/11 00:58:36;;;;;;;23.48;15.48;;;;;;;;;;5010203;28;20186;-68
2021/06/11 01:01:01;;;;;;;23.27;15.93;;;;;;;;;;5020570;28;20213;-69
2021/06/11 01:03:27;;;;;;;20.02;15.55;;;;;;;;;;5014331;28;20308;-69
2021/06/11 01:05:53;;;;;;;22.48;16.65;;;;;;;;;;5011668;28;20190;-69
2021/06/11 01:08:20;;;;;;;21.52;17.05;;;;;;;;;;5019454;28;20617;-69
2021/06/11 01:10:47;;;;;;;20.55;16.50;;;;;;;;;;5012148;28;20210;-68
2021/06/11 01:13:14;;;;;;;20.27;16.40;;;;;;;;;;5017417;28;20608;-68
2021/06/11 01:15:40;;;;;;;22.42;17.77;;;;;;;;;;5009805;28;20965;-69
2021/06/11 01:18:05;;;;;;;22.63;16.98;;;;;;;;;;5017363;28;20182;-68
2021/06/11 01:20:32;;;;;;;22.27;17.63;;;;;;;;;;5002501;28;20197;-68
2021/06/11 01:23:23;;;;;;;20.63;15.50;;;;;;;;;;5017358;28;20236;-68
2021/06/11 01:25:53;;;;;;;20.10;15.70;;;;;;;;;;5009874;28;23424;-69
2021/06/11 01:28:20;;;;;;;24.02;18.60;;;;;;;;;;5016999;28;20186;-69
2021/06/11 01:30:46;;;;;;;25.70;17.55;;;;;;;;;;5008771;28;20206;-68
2021/06/11 01:33:15;;;;;;;22.58;16.73;;;;;;;;;;5020149;28;20248;-69
2021/06/11 01:35:45;;;;;;;21.90;16.70;;;;;;;;;;5006725;28;20236;-69
2021/06/11 01:38:16;;;;;;;22.73;16.88;;;;;;;;;;5017941;28;20261;-69
2021/06/11 01:40:43;;;;;;;25.88;18.13;;;;;;;;;;5011663;28;20285;-69
2021/06/11 01:43:09;;;;;;;21.00;17.20;;;;;;;;;;5015615;28;21066;-68
2021/06/11 01:45:35;;;;;;;28.17;18.50;;;;;;;;;;5020224;28;20210;-69
2021/06/11 01:48:00;;;;;;;29.95;18.52;;;;;;;;;;5010409;28;20225;-68
2021/06/11 01:50:30;;;;;;;23.10;18.20;;;;;;;;;;5018897;28;20182;-69
2021/06/11 01:52:58;;;;;;;21.65;16.77;;;;;;;;;;5007098;28;20217;-69
2021/06/11 01:55:24;;;;;;;24.90;18.48;;;;;;;;;;5015165;28;20190;-68
2021/06/11 01:57:49;;;;;;;22.50;17.15;;;;;;;;;;5011251;28;20190;-69
2021/06/11 02:00:17;;;;;;;22.33;17.90;;;;;;;;;;5016777;28;20186;-69
2021/06/11 02:02:44;;;;;;;22.45;17.73;;;;;;;;;;5009887;28;20174;-68
2021/06/11 02:05:10;;;;;;;21.58;17.83;;;;;;;;;;5016944;28;20210;-68
2021/06/11 02:07:36;;;;;;;21.33;17.75;;;;;;;;;;5009911;28;20194;-69
2021/06/11 02:10:07;;;;;;;21.63;16.92;;;;;;;;;;5015650;28;20637;-69
2021/06/11 02:12:33;;;;;;;20.33;17.08;;;;;;;;;;5009870;28;20237;-69
2021/06/11 02:15:00;;;;;;;26.42;18.65;;;;;;;;;;5014755;28;20187;-68
2021/06/11 02:17:26;;;;;;;24.40;18.15;;;;;;;;;;5019067;28;20190;-69
2021/06/11 02:19:53;;;;;;;28.17;20.42;;;;;;;;;;5008272;28;20201;-68
2021/06/11 02:22:18;;;;;;;24.65;18.67;;;;;;;;;;5016860;28;20656;-68
2021/06/11 02:24:44;;;;;;;24.17;18.75;;;;;;;;;;5006122;28;20236;-69
2021/06/11 02:27:11;;;;;;;26.70;18.95;;;;;;;;;;5016611;28;20273;-69
2021/06/11 02:29:37;;;;;;;25.42;19.73;;;;;;;;;;5008654;28;20675;-69
2021/06/11 02:32:04;;;;;;;25.45;19.77;;;;;;;;;;5021465;28;20292;-69
2021/06/11 02:34:30;;;;;;;23.25;18.85;;;;;;;;;;5011822;28;20198;-69
2021/06/11 02:36:55;;;;;;;24.08;19.25;;;;;;;;;;5020753;28;20554;-69
2021/06/11 02:39:21;;;;;;;23.40;18.23;;;;;;;;;;5008915;28;20249;-69
2021/06/11 02:41:53;;;;;;;27.10;17.60;;;;;;;;;;5021951;28;20202;-69
2021/06/11 02:44:21;;;;;;;26.00;17.67;;;;;;;;;;5010060;28;20285;-69
2021/06/11 02:47:12;;;;;;;24.98;19.02;;;;;;;;;;5023944;28;20225;-69
2021/06/11 02:50:03;;;;;;;21.00;17.10;;;;;;;;;;5010742;28;20198;-69
2021/06/11 02:52:29;;;;;;;24.25;18.30;;;;;;;;;;5021757;28;20198;-69
2021/06/11 02:54:58;;;;;;;20.35;15.88;;;;;;;;;;5011177;28;20198;-69
2021/06/11 02:57:38;;;;;;;21.92;17.13;;;;;;;;;;5019699;28;20183;-69
2021/06/11 03:00:07;;;;;;;19.83;15.50;;;;;;;;;;5009735;28;20193;-69
2021/06/11 03:02:40;;;;;;;22.33;15.82;;;;;;;;;;5023189;28;20174;-69
2021/06/11 03:05:08;;;;;;;21.08;16.23;;;;;;;;;;5016624;28;20205;-69
2021/06/11 03:07:36;;;;;;;18.42;15.60;;;;;;;;;;5018194;28;20201;-68
2021/06/11 03:10:06;;;;;;;21.67;16.17;;;;;;;;;;5014922;28;20191;-69
2021/06/11 03:12:33;;;;;;;23.23;17.80;;;;;;;;;;5012928;28;20289;-68
2021/06/11 03:14:58;;;;;;;27.23;19.45;;;;;;;;;;5020689;28;20225;-69
2021/06/11 03:17:42;;;;;;;27.15;20.30;;;;;;;;;;5011943;28;20220;-68
2021/06/11 03:20:13;;;;;;;23.52;18.50;;;;;;;;;;5020264;28;20190;-69
2021/06/11 03:22:46;;;;;;;27.40;19.65;;;;;;;;;;5010862;28;20209;-69
2021/06/11 03:25:20;;;;;;;23.00;18.45;;;;;;;;;;5023424;28;20240;-69
2021/06/11 03:27:54;;;;;;;25.95;20.10;;;;;;;;;;5016620;28;20189;-69
2021/06/11 03:30:22;;;;;;;25.63;18.55;;;;;;;;;;5018999;28;20227;-69
2021/06/11 03:33:00;;;;;;;29.70;20.20;;;;;;;;;;5016168;28;20791;-69
2021/06/11 03:35:33;;;;;;;29.38;20.67;;;;;;;;;;5020394;28;20529;-69
2021/06/11 03:38:01;;;;;;;34.17;21.58;;;;;;;;;;5012698;28;20673;-69
2021/06/11 03:40:33;;;;;;;28.58;21.33;;;;;;;;;;5019213;28;20616;-69
2021/06/11 03:43:00;;;;;;;31.02;21.33;;;;;;;;;;5009983;28;20194;-69
2021/06/11 03:45:28;;;;;;;28.98;21.50;;;;;;;;;;5018634;28;20282;-69
2021/06/11 03:47:54;;;;;;;33.05;21.27;;;;;;;;;;5013173;28;20198;-69
2021/06/11 03:50:21;;;;;;;31.67;21.38;;;;;;;;;;5019828;28;20281;-69
2021/06/11 03:52:49;;;;;;;30.02;22.08;;;;;;;;;;5010468;28;26988;-69
2021/06/11 03:55:22;;;;;;;31.85;22.38;;;;;;;;;;5015669;28;20190;-69
2021/06/11 03:58:25;;;;;;;33.33;22.58;;;;;;;;;;5013074;28;20810;-69
2021/06/11 04:00:51;;;;;;;28.80;21.85;;;;;;;;;;5020126;28;20269;-69
2021/06/11 04:03:17;;;;;;;27.67;20.92;;;;;;;;;;5008897;28;20602;-69
2021/06/11 04:05:43;;;;;;;29.17;22.17;;;;;;;;;;5019690;28;20220;-69
2021/06/11 04:08:13;;;;;;;28.85;20.60;;;;;;;;;;5014370;28;20187;-69
2021/06/11 04:10:53;;;;;;;27.42;20.67;;;;;;;;;;5008543;28;20281;-69
2021/06/11 04:13:25;;;;;;;30.85;21.30;;;;;;;;;;5012012;28;20179;-69
2021/06/11 04:15:53;;;;;;;25.90;19.80;;;;;;;;;;5013282;28;20581;-69
2021/06/11 04:18:24;;;;;;;25.95;21.48;;;;;;;;;;5016488;28;20193;-69
2021/06/11 04:20:54;;;;;;;28.02;20.90;;;;;;;;;;5009385;28;20190;-69
2021/06/11 04:23:25;;;;;;;29.20;20.52;;;;;;;;;;5012227;28;20201;-69
2021/06/11 04:25:52;;;;;;;25.70;19.90;;;;;;;;;;5010574;28;20186;-69
2021/06/11 04:28:18;;;;;;;26.77;20.40;;;;;;;;;;5017616;28;20253;-69
2021/06/11 04:30:44;;;;;;;25.05;19.73;;;;;;;;;;5008837;28;20195;-69
2021/06/11 04:33:23;;;;;;;24.15;18.60;;;;;;;;;;5015373;28;20182;-69
2021/06/11 04:35:49;;;;;;;26.33;19.35;;;;;;;;;;5013610;28;20256;-69
2021/06/11 04:38:15;;;;;;;24.95;18.30;;;;;;;;;;5017932;28;20536;-69
2021/06/11 04:40:41;;;;;;;22.73;17.70;;;;;;;;;;5009387;28;20286;-69
2021/06/11 04:43:07;;;;;;;21.20;17.23;;;;;;;;;;5017100;28;20611;-69
2021/06/11 04:45:33;;;;;;;22.63;17.83;;;;;;;;;;5009995;28;20194;-69
2021/06/11 04:47:59;;;;;;;23.10;18.10;;;;;;;;;;5017672;28;20182;-69
2021/06/11 04:50:25;;;;;;;22.98;17.70;;;;;;;;;;5018175;28;20212;-69
2021/06/11 04:52:50;;;;;;;22.23;17.35;;;;;;;;;;5012971;28;20232;-69
2021/06/11 04:55:16;;;;;;;24.77;18.33;;;;;;;;;;5016335;28;20198;-69
2021/06/11 04:57:41;;;;;;;22.60;17.75;;;;;;;;;;5008009;28;20217;-69
2021/06/11 05:00:09;;;;;;;20.45;17.02;;;;;;;;;;5017634;28;20570;-69
2021/06/11 05:02:34;;;;;;;23.70;17.58;;;;;;;;;;5010939;28;20187;-69
2021/06/11 05:04:59;;;;;;;21.77;17.85;;;;;;;;;;5019724;28;20194;-69
2021/06/11 05:07:25;;;;;;;23.27;17.90;;;;;;;;;;5007567;28;20532;-69
2021/06/11 05:09:50;;;;;;;24.73;18.55;;;;;;;;;;5015860;28;20601;-70
2021/06/11 05:12:16;;;;;;;25.48;18.73;;;;;;;;;;5008650;28;20214;-70
2021/06/11 05:14:41;;;;;;;25.35;18.50;;;;;;;;;;5020835;28;20205;-69
2021/06/11 05:17:06;;;;;;;24.27;18.88;;;;;;;;;;5008238;28;20257;-69
2021/06/11 05:19:32;;;;;;;22.38;18.70;;;;;;;;;;5014209;28;20217;-69
2021/06/11 05:21:57;;;;;;;24.50;18.95;;;;;;;;;;5014387;28;20569;-69
2021/06/11 05:24:22;;;;;;;25.15;19.38;;;;;;;;;;5010408;28;20689;-69
2021/06/11 05:26:48;;;;;;;26.60;19.10;;;;;;;;;;5015881;28;20210;-70
2021/06/11 05:29:13;;;;;;;30.77;20.52;;;;;;;;;;5010608;28;20218;-69
2021/06/11 05:31:38;;;;;;;26.50;19.33;;;;;;;;;;5018847;28;20674;-69
2021/06/11 05:34:03;;;;;;;27.67;20.00;;;;;;;;;;5007533;28;20193;-67
2021/06/11 05:36:29;;;;;;;27.00;20.15;;;;;;;;;;5018747;28;20201;-69
2021/06/11 05:38:54;;;;;;;29.60;21.35;;;;;;;;;;5008939;28;20673;-69
2021/06/11 05:41:19;;;;;;;28.40;21.58;;;;;;;;;;5016049;28;20236;-69
2021/06/11 05:43:45;;;;;;;25.27;20.55;;;;;;;;;;5009733;28;20231;-69
2021/06/11 05:46:11;;;;;;;29.70;21.35;;;;;;;;;;5019001;28;20205;-69
2021/06/11 05:48:39;;;;;;;29.58;21.02;;;;;;;;;;5018032;28;20193;-69
2021/06/11 05:51:05;;;;;;;28.30;21.02;;;;;;;;;;4315156;28;10000807;-69
2021/06/11 05:53:30;;;;;;;28.20;20.55;;;;;;;;;;5019337;28;20586;-68
2021/06/11 05:55:55;;;;;;;31.13;22.05;;;;;;;;;;5010810;28;20227;-69
2021/06/11 05:58:21;;;;;;;33.80;22.38;;;;;;;;;;5022505;28;20189;-68
2021/06/11 06:00:46;;;;;;;31.65;21.83;;;;;;;;;;5005749;28;20214;-69
2021/06/11 06:03:12;;;;;;;29.90;22.80;;;;;;;;;;5018451;28;20273;-68
2021/06/11 06:05:37;;;;;;;28.77;22.52;;;;;;;;;;5007565;28;20185;-69
2021/06/11 06:08:03;;;;;;;31.33;23.58;;;;;;;;;;5016633;28;20188;-69
2021/06/11 06:10:28;;;;;;;30.25;22.98;;;;;;;;;;5012871;28;20194;-69
2021/06/11 06:12:54;;;;;;;34.53;23.50;;;;;;;;;;5021522;28;20479;-71
2021/06/11 06:15:19;;;;;;;32.75;23.88;;;;;;;;;;5011289;28;20528;-70
2021/06/11 06:17:44;;;;;;;29.75;22.10;;;;;;;;;;5019787;28;20200;-69
2021/06/11 06:20:11;;;;;;;28.98;22.45;;;;;;;;;;5016198;28;20321;-69
2021/06/11 06:22:37;;;;;;;25.92;19.50;;;;;;;;;;5014897;28;20186;-70
2021/06/11 06:25:04;;;;;;;26.48;20.25;;;;;;;;;;5015658;28;20192;-69
2021/06/11 06:27:30;;;;;;;26.20;18.95;;;;;;;;;;5017519;28;20194;-70
2021/06/11 06:29:55;;;;;;;25.95;19.10;;;;;;;;;;5020265;28;20189;-69
2021/06/11 06:32:21;;;;;;;25.52;18.40;;;;;;;;;;5010828;28;20203;-69
2021/06/11 06:34:46;;;;;;;23.48;19.27;;;;;;;;;;5018651;28;21337;-69
2021/06/11 06:37:12;;;;;;;23.50;17.80;;;;;;;;;;5007797;28;20187;-69
2021/06/11 06:39:38;;;;;;;20.17;15.02;;;;;;;;;;5020821;28;20217;-69
2021/06/11 06:42:05;;;;;;;23.42;16.63;;;;;;;;;;5009072;28;20194;-70
2021/06/11 06:44:31;;;;;;;21.27;15.80;;;;;;;;;;5012858;28;20576;-69
2021/06/11 06:46:56;;;;;;;20.50;16.67;;;;;;;;;;5005477;28;20179;-69
2021/06/11 06:49:21;;;;;;;21.10;15.15;;;;;;;;;;5014628;28;20206;-70
2021/06/11 06:51:47;;;;;;;19.23;13.73;;;;;;;;;;5021579;28;20203;-70
2021/06/11 06:54:13;;;;;;;18.17;14.30;;;;;;;;;;5004363;28;20257;-68
2021/06/11 06:56:38;;;;;;;16.02;12.98;;;;;;;;;;5016485;28;20179;-72
2021/06/11 06:59:03;;;;;;;15.82;12.93;;;;;;;;;;5008336;28;20198;-73
2021/06/11 07:01:29;;;;;;;17.58;12.55;;;;;;;;;;5015053;28;20689;-69
2021/06/11 07:04:00;;;;;;;14.52;11.60;;;;;;;;;;5007004;28;20627;-69
2021/06/11 07:06:27;;;;;;;14.73;9.55;;;;;;;;;;5017319;28;20646;-69
2021/06/11 07:08:53;;;;;;;12.85;10.10;;;;;;;;;;5006798;28;20285;-70
2021/06/11 07:11:19;;;;;;;13.23;10.88;;;;;;;;;;5019257;28;20190;-72
2021/06/11 07:13:44;;;;;;;14.88;10.85;;;;;;;;;;5013120;28;20637;-71
2021/06/11 07:16:10;;;;;;;13.25;10.05;;;;;;;;;;5029610;28;20177;-70
2021/06/11 07:18:37;;;;;;;13.77;10.98;;;;;;;;;;5015308;28;20553;-69
2021/06/11 07:21:06;;;;;;;16.17;10.52;;;;;;;;;;5028062;28;20174;-69
2021/06/11 07:23:32;;;;;;;14.88;10.43;;;;;;;;;;5021252;28;20177;-69
2021/06/11 07:25:59;;;;;;;16.50;11.13;;;;;;;;;;5015160;28;20197;-70
2021/06/11 07:28:28;;;;;;;14.55;9.90;;;;;;;;;;5021409;28;20222;-69
2021/06/11 07:30:54;;;;;;;11.93;9.20;;;;;;;;;;5013065;28;20214;-69
2021/06/11 07:33:19;;;;;;;11.88;8.90;;;;;;;;;;5017782;28;20194;-68
2021/06/11 07:35:45;;;;;;;13.10;8.00;;;;;;;;;;5011600;28;20183;-71
2021/06/11 07:38:10;;;;;;;10.90;7.82;;;;;;;;;;5023900;28;20189;-70
2021/06/11 07:40:35;;;;;;;10.00;7.35;;;;;;;;;;5012954;28;20198;-68
2021/06/11 07:43:03;;;;;;;9.82;7.40;;;;;;;;;;5019482;28;20251;-70
2021/06/11 07:45:30;;;;;;;14.13;7.97;;;;;;;;;;5013348;28;20585;-70
2021/06/11 07:47:56;;;;;;;12.02;7.30;;;;;;;;;;5022622;28;20321;-70
2021/06/11 07:50:22;;;;;;;8.52;7.07;;;;;;;;;;5012487;28;20550;-68
2021/06/11 07:52:48;;;;;;;11.60;7.20;;;;;;;;;;5021310;28;20210;-69
2021/06/11 07:55:15;;;;;;;10.55;7.78;;;;;;;;;;5022370;28;20193;-69
2021/06/11 07:57:40;;;;;;;9.35;6.65;;;;;;;;;;5018098;28;20182;-69
2021/06/11 08:00:07;;;;;;;8.18;6.10;;;;;;;;;;5021417;28;20189;-69
2021/06/11 08:02:32;;;;;;;7.25;6.07;;;;;;;;;;5009738;28;20186;-72
2021/06/11 08:04:57;;;;;;;9.10;6.85;;;;;;;;;;5022010;28;20185;-72
2021/06/11 08:07:29;;;;;;;9.50;6.63;;;;;;;;;;5007100;28;20187;-70
2021/06/11 08:09:56;;;;;;;10.07;6.88;;;;;;;;;;5020460;28;20186;-70
2021/06/11 08:12:21;;;;;;;10.07;7.32;;;;;;;;;;5008420;28;20218;-69
2021/06/11 08:14:47;;;;;;;10.35;6.88;;;;;;;;;;5023036;28;20178;-69
2021/06/11 08:17:13;;;;;;;9.85;8.05;;;;;;;;;;5006640;28;20194;-69
2021/06/11 08:19:38;;;;;;;11.77;8.32;;;;;;;;;;5021223;28;20189;-69
2021/06/11 08:22:04;;;;;;;9.73;7.63;;;;;;;;;;5006047;28;20196;-69
2021/06/11 08:24:30;;;;;;;11.20;7.70;;;;;;;;;;5021513;28;20275;-71
2021/06/11 08:26:55;;;;;;;10.68;8.13;;;;;;;;;;5013208;28;20218;-70
2021/06/11 08:29:23;;;;;;;8.85;7.07;;;;;;;;;;5019073;28;20223;-69
2021/06/11 08:31:49;;;;;;;10.02;7.53;;;;;;;;;;5018831;28;20260;-72
2021/06/11 08:34:14;;;;;;;8.38;6.22;;;;;;;;;;5012851;28;20190;-68
2021/06/11 08:36:39;;;;;;;7.50;6.07;;;;;;;;;;5012978;28;20186;-71
2021/06/11 08:39:05;;;;;;;8.95;7.03;;;;;;;;;;5012608;28;20195;-69
2021/06/11 08:41:31;;;;;;;8.23;5.80;;;;;;;;;;5018954;28;20232;-69
2021/06/11 08:43:56;;;;;;;9.35;5.63;;;;;;;;;;5011812;28;20233;-69
2021/06/11 08:46:22;;;;;;;9.30;6.43;;;;;;;;;;5017916;28;20187;-69
2021/06/11 08:48:48;;;;;;;8.52;7.05;;;;;;;;;;5013258;28;20303;-70
2021/06/11 08:51:14;;;;;;;8.00;6.13;;;;;;;;;;5016728;28;20296;-69
2021/06/11 08:53:39;;;;;;;9.05;6.63;;;;;;;;;;5010716;28;20207;-69
2021/06/11 08:56:06;;;;;;;8.20;6.50;;;;;;;;;;5016202;28;20194;-69
2021/06/11 08:58:31;;;;;;;6.88;5.75;;;;;;;;;;5013066;28;20230;-69
2021/06/11 09:00:56;;;;;;;7.43;6.07;;;;;;;;;;5016327;28;21466;-69
2021/06/11 09:03:34;;;;;;;9.05;6.13;;;;;;;;;;5017751;28;20267;-70
2021/06/11 09:05:59;;;;;;;8.40;7.50;;;;;;;;;;5011922;28;20190;-71
2021/06/11 09:08:25;;;;;;;6.72;5.80;;;;;;;;;;5017685;28;20198;-69
2021/06/11 09:10:54;;;;;;;7.55;5.00;;;;;;;;;;5006533;28;20195;-71
2021/06/11 09:13:28;;;;;;;10.80;5.70;;;;;;;;;;5012442;28;20181;-69
2021/06/11 09:16:08;;;;;;;6.70;5.72;;;;;;;;;;5007186;28;20186;-69
2021/06/11 09:19:02;;;;;;;7.53;5.57;;;;;;;;;;5016795;28;20273;-69
2021/06/11 09:21:38;;;;;;;7.90;5.15;;;;;;;;;;5007176;28;20647;-71
2021/06/11 09:24:32;;;;;;;6.60;4.75;;;;;;;;;;5022836;28;20615;-70
2021/06/11 09:26:57;;;;;;;6.40;4.07;;;;;;;;;;5012797;28;20220;-69
2021/06/11 09:29:27;;;;;;;6.70;4.55;;;;;;;;;;5020832;28;20304;-70
2021/06/11 09:32:14;;;;;;;10.50;5.63;;;;;;;;;;5009495;28;20218;-69
2021/06/11 09:34:40;;;;;;;7.32;5.20;;;;;;;;;;5020932;28;20186;-69
2021/06/11 09:37:12;;;;;;;6.00;4.10;;;;;;;;;;5006847;28;20186;-69
2021/06/11 09:40:00;;;;;;;5.40;3.65;;;;;;;;;;5017068;28;20183;-68
2021/06/11 09:42:28;;;;;;;6.72;4.53;;;;;;;;;;5007964;28;20707;-68
2021/06/11 09:44:56;;;;;;;4.03;3.58;;;;;;;;;;5015930;28;20229;-69
2021/06/11 09:47:41;;;;;;;4.20;3.67;;;;;;;;;;5007209;28;20213;-72
2021/06/11 09:50:28;;;;;;;5.32;3.72;;;;;;;;;;5020473;28;20177;-69
2021/06/11 09:52:56;;;;;;;4.93;3.75;;;;;;;;;;5008929;28;20218;-69
2021/06/11 09:55:46;;;;;;;4.75;3.58;;;;;;;;;;5013683;28;20712;-70
2021/06/11 09:58:23;;;;;;;3.70;3.20;;;;;;;;;;5010443;28;20186;-70
2021/06/11 10:00:56;;;;;;;4.57;3.28;;;;;;;;;;5015450;28;20339;-71
2021/06/11 10:03:23;;;;;;;4.82;3.03;;;;;;;;;;5009968;28;20186;-69
2021/06/11 10:05:50;;;;;;;4.13;3.60;;;;;;;;;;5017006;28;20249;-69
2021/06/11 10:08:17;;;;;;;4.53;3.65;;;;;;;;;;5008563;28;20193;-70
2021/06/11 10:10:44;;;;;;;4.97;3.72;;;;;;;;;;5018359;28;20182;-68
2021/06/11 10:13:14;;;;;;;4.93;3.95;;;;;;;;;;5007001;28;20266;-68
2021/06/11 10:15:41;;;;;;;5.38;4.50;;;;;;;;;;5014781;28;20563;-68
2021/06/11 10:18:08;;;;;;;7.45;3.85;;;;;;;;;;5007728;28;20178;-69
2021/06/11 10:20:33;;;;;;;6.72;3.90;;;;;;;;;;5017646;28;20182;-68
2021/06/11 10:23:00;;;;;;;3.85;3.40;;;;;;;;;;5010089;28;20174;-71
2021/06/11 10:25:25;;;;;;;5.20;4.38;;;;;;;;;;5015794;28;20209;-67
2021/06/11 10:27:51;;;;;;;5.63;3.80;;;;;;;;;;5015764;28;20636;-70
2021/06/11 10:30:17;;;;;;;5.75;3.80;;;;;;;;;;5017360;28;20205;-69
2021/06/11 10:32:45;;;;;;;5.10;3.90;;;;;;;;;;5017890;28;20681;-70
2021/06/11 10:35:11;;;;;;;4.25;3.55;;;;;;;;;;5006386;28;20191;-69
2021/06/11 10:37:38;;;;;;;5.35;4.18;;;;;;;;;;5016062;28;20269;-69
2021/06/11 10:40:22;;;;;;;5.13;4.10;;;;;;;;;;5012464;28;20193;-67
2021/06/11 10:42:48;;;;;;;4.90;3.95;;;;;;;;;;5014224;28;20277;-68
2021/06/11 10:45:41;;;;;;;3.65;3.20;;;;;;;;;;5009831;28;20313;-69
2021/06/11 10:48:07;;;;;;;5.30;3.97;;;;;;;;;;5017228;28;20189;-70
2021/06/11 10:50:34;;;;;;;4.00;3.25;;;;;;;;;;5010380;28;20202;-69
2021/06/11 10:53:31;;;;;;;4.60;3.92;;;;;;;;;;5018525;28;20410;-70
2021/06/11 10:56:19;;;;;;;4.15;3.60;;;;;;;;;;5012970;28;20202;-68
2021/06/11 10:58:45;;;;;;;7.82;4.03;;;;;;;;;;5023358;28;20241;-68
2021/06/11 11:01:21;;;;;;;5.13;3.50;;;;;;;;;;5017520;28;20222;-69
2021/06/11 11:03:46;;;;;;;6.32;4.22;;;;;;;;;;5024157;28;20717;-68
2021/06/11 11:06:38;;;;;;;5.07;4.20;;;;;;;;;;5013550;28;20198;-70
2021/06/11 11:09:05;;;;;;;5.13;3.55;;;;;;;;;;5037747;28;20227;-71
2021/06/11 11:11:36;;;;;;;3.83;3.13;;;;;;;;;;5012210;28;21036;-70
2021/06/11 11:14:04;;;;;;;4.20;3.80;;;;;;;;;;5020798;28;20182;-69
2021/06/11 11:16:38;;;;;;;4.20;3.80;;;;;;;;;;5015099;28;20198;-71
2021/06/11 11:19:06;;;;;;;5.38;3.67;;;;;;;;;;5028006;28;20514;-69
2021/06/11 11:21:35;;;;;;;5.05;3.92;;;;;;;;;;5015234;28;20178;-69
2021/06/11 11:24:09;;;;;;;3.97;3.50;;;;;;;;;;5021965;28;20209;-71
2021/06/11 11:26:51;;;;;;;3.95;3.08;;;;;;;;;;5014696;28;20702;-71
2021/06/11 11:29:19;;;;;;;3.95;3.38;;;;;;;;;;5017957;28;20905;-69
2021/06/11 11:31:46;;;;;;;4.30;3.90;;;;;;;;;;5009467;28;20301;-70
2021/06/11 11:34:12;;;;;;;5.32;3.80;;;;;;;;;;5015639;28;20221;-69
2021/06/11 11:36:38;;;;;;;3.67;3.30;;;;;;;;;;5014295;28;20631;-69
2021/06/11 11:39:06;;;;;;;5.47;3.30;;;;;;;;;;5021030;28;20237;-70
2021/06/11 11:41:33;;;;;;;3.90;3.10;;;;;;;;;;5013817;28;20229;-69
2021/06/11 11:43:58;;;;;;;3.28;2.90;;;;;;;;;;5021079;28;20262;-69
2021/06/11 11:46:23;;;;;;;4.63;3.50;;;;;;;;;;5023256;28;20205;-71
2021/06/11 11:48:49;;;;;;;5.10;3.70;;;;;;;;;;5010588;28;20267;-72
2021/06/11 11:51:14;;;;;;;5.05;3.42;;;;;;;;;;5020452;28;20837;-70
2021/06/11 11:53:40;;;;;;;5.40;4.40;;;;;;;;;;5011760;28;20190;-69
2021/06/11 11:56:06;;;;;;;6.18;3.60;;;;;;;;;;5019011;28;20182;-68
2021/06/11 11:58:31;;;;;;;4.95;3.15;;;;;;;;;;5010806;28;20232;-70
2021/06/11 12:00:57;;;;;;;3.65;3.13;;;;;;;;;;5019650;28;20207;-68
2021/06/11 12:03:22;;;;;;;3.97;3.25;;;;;;;;;;5010548;28;20187;-68
2021/06/11 12:05:47;;;;;;;4.85;3.10;;;;;;;;;;5019814;28;20222;-68
2021/06/11 12:08:13;;;;;;;4.32;2.90;;;;;;;;;;5010175;28;20244;-70
2021/06/11 12:10:38;;;;;;;5.00;3.10;;;;;;;;;;5023209;28;20190;-67
2021/06/11 12:13:04;;;;;;;5.47;3.15;;;;;;;;;;5014946;28;20206;-67
2021/06/11 12:15:29;;;;;;;5.10;3.13;;;;;;;;;;5010825;28;20186;-68
2021/06/11 12:17:57;;;;;;;4.90;3.25;;;;;;;;;;5021855;28;20181;-69
2021/06/11 12:20:22;;;;;;;4.78;3.25;;;;;;;;;;5013121;28;20667;-69
2021/06/11 12:22:48;;;;;;;4.68;3.53;;;;;;;;;;5017856;28;20190;-69
2021/06/11 12:25:13;;;;;;;4.03;3.63;;;;;;;;;;5009631;28;20723;-68
2021/06/11 12:27:39;;;;;;;4.57;4.10;;;;;;;;;;5015905;28;20186;-68
2021/06/11 12:30:05;;;;;;;4.93;3.72;;;;;;;;;;5010988;28;20277;-68
2021/06/11 12:32:30;;;;;;;6.55;3.53;;;;;;;;;;5011692;28;20576;-69
2021/06/11 12:34:55;;;;;;;4.80;4.35;;;;;;;;;;5010759;28;20824;-70
2021/06/11 12:37:21;;;;;;;4.95;3.78;;;;;;;;;;5012461;28;20194;-69
2021/06/11 12:39:47;;;;;;;6.10;4.13;;;;;;;;;;5010280;28;20194;-72
2021/06/11 12:42:18;;;;;;;5.18;3.85;;;;;;;;;;5011315;28;20543;-69
2021/06/11 12:44:43;;;;;;;5.85;4.25;;;;;;;;;;5009512;28;20293;-70
2021/06/11 12:47:11;;;;;;;7.10;5.10;;;;;;;;;;5014696;28;20193;-69
2021/06/11 12:49:37;;;;;;;5.57;4.40;;;;;;;;;;5021443;28;20212;-68
2021/06/11 12:52:03;;;;;;;5.40;4.18;;;;;;;;;;4318844;28;10000838;-69
2021/06/11 12:54:28;;;;;;;5.53;4.50;;;;;;;;;;5014098;28;20205;-70
2021/06/11 12:56:54;;;;;;;8.48;4.75;;;;;;;;;;5017134;28;20328;-69
2021/06/11 12:59:19;;;;;;;5.43;4.30;;;;;;;;;;5019815;28;20193;-69
2021/06/11 13:01:45;;;;;;;7.68;5.00;;;;;;;;;;5016676;28;20643;-72
2021/06/11 13:04:10;;;;;;;5.03;4.45;;;;;;;;;;5018837;28;20194;-71
2021/06/11 13:06:36;;;;;;;6.72;5.50;;;;;;;;;;5015048;28;20755;-68
2021/06/11 13:09:05;;;;;;;7.10;5.15;;;;;;;;;;5022157;28;20186;-72
2021/06/11 13:11:31;;;;;;;6.93;5.35;;;;;;;;;;5011710;28;20225;-68
2021/06/11 13:13:56;;;;;;;7.28;5.88;;;;;;;;;;5016950;28;20235;-68
2021/06/11 13:16:22;;;;;;;9.13;6.18;;;;;;;;;;5006925;28;20179;-68
2021/06/11 13:18:48;;;;;;;12.30;8.10;;;;;;;;;;5013820;28;20259;-70
2021/06/11 13:21:13;;;;;;;10.32;8.00;;;;;;;;;;5017474;28;20649;-68
2021/06/11 13:23:38;;;;;;;13.32;6.88;;;;;;;;;;5007482;28;20212;-68
2021/06/11 13:26:04;;;;;;;12.52;8.63;;;;;;;;;;5030119;28;20186;-69
2021/06/11 13:28:29;;;;;;;11.98;7.63;;;;;;;;;;5014364;28;20209;-68
2021/06/11 13:30:55;;;;;;;16.60;9.73;;;;;;;;;;5017580;28;20187;-70
2021/06/11 13:33:20;;;;;;;19.33;11.20;;;;;;;;;;5003511;28;20187;-68
2021/06/11 13:35:47;;;;;;;17.25;11.82;;;;;;;;;;5018942;28;20182;-70
2021/06/11 13:38:13;;;;;;;18.92;12.20;;;;;;;;;;5006336;28;20641;-68
2021/06/11 13:40:39;;;;;;;18.83;12.80;;;;;;;;;;5018946;28;20232;-69
2021/06/11 13:43:04;;;;;;;21.25;13.35;;;;;;;;;;5005763;28;20866;-69
2021/06/11 13:45:30;;;;;;;17.42;11.23;;;;;;;;;;5015954;28;21019;-71
2021/06/11 13:47:56;;;;;;;17.50;11.15;;;;;;;;;;5016524;28;20225;-71
2021/06/11 13:50:23;;;;;;;17.38;11.35;;;;;;;;;;5006906;28;20191;-67
2021/06/11 13:52:49;;;;;;;15.98;10.48;;;;;;;;;;5016601;28;20214;-69
2021/06/11 13:55:15;;;;;;;16.10;9.98;;;;;;;;;;5005771;28;20194;-68
2021/06/11 13:57:41;;;;;;;15.02;10.82;;;;;;;;;;5012065;28;20186;-69
2021/06/11 14:00:12;;;;;;;14.55;10.55;;;;;;;;;;5008065;28;20190;-72
2021/06/11 14:02:37;;;;;;;16.10;11.45;;;;;;;;;;5013494;28;20197;-68
2021/06/11 14:05:04;;;;;;;14.38;10.30;;;;;;;;;;5004928;28;20202;-69
2021/06/11 14:07:30;;;;;;;17.80;10.32;;;;;;;;;;5016236;28;20637;-68
2021/06/11 14:09:55;;;;;;;13.98;11.05;;;;;;;;;;5008004;28;20494;-72
2021/06/11 14:12:20;;;;;;;12.80;9.82;;;;;;;;;;5015227;28;20206;-67
2021/06/11 14:14:46;;;;;;;19.00;11.43;;;;;;;;;;5011394;28;20199;-68
2021/06/11 14:17:14;;;;;;;14.80;10.95;;;;;;;;;;5019714;28;20232;-69
2021/06/11 14:19:40;;;;;;;15.63;12.00;;;;;;;;;;5014986;28;20186;-68
2021/06/11 14:22:06;;;;;;;17.80;13.25;;;;;;;;;;5019860;28;20186;-71
2021/06/11 14:24:31;;;;;;;20.30;13.80;;;;;;;;;;5020167;28;20652;-69
2021/06/11 14:26:57;;;;;;;19.98;14.43;;;;;;;;;;5006587;28;20194;-68
2021/06/11 14:29:22;;;;;;;19.52;14.15;;;;;;;;;;5017922;28;20553;-68